sensor_id;sensor_type;location;lat;lon;timestamp;pressure;altitude;pressure_sealevel;temperature;humidity
42111;BME280;27766;52.174;5.456;2023-01-19T00:00:55;99855.19;;;0.62;100.00
42111;BME280;27766;52.174;5.456;2023-01-19T00:03:22;99850.09;;;0.62;100.00
42111;BME280;27766;52.174;5.456;2023-01-19T00:05:49;99847.47;;;0.61;100.00
42111;BME280;27766;52.174;5.456;2023-01-19T00:08:17;99855.78;;;0.57;100.00
42111;BME280;27766;52.174;5.456;2023-01-19T00:10:46;99851.22;;;0.50;100.00
42111;BME280;27766;52.174;5.456;2023-01-19T00:13:14;99863.66;;;0.42;100.00
42111;BME280;27766;52.174;5.456;2023-01-19T00:15:42;99874.88;;;0.27;100.00
42111;BME280;27766;52.174;5.456;2023-01-19T00:18:17;99869.25;;;0.15;100.00
42111;BME280;27766;52.174;5.456;2023-01-19T00:23:19;99865.00;;;-0.04;100.00
42111;BME280;27766;52.174;5.456;2023-01-19T00:25:47;99872.16;;;-0.15;100.00
42111;BME280;27766;52.174;5.456;2023-01-19T00:28:16;99869.41;;;-0.20;100.00
42111;BME280;27766;52.174;5.456;2023-01-19T00:30:44;99854.66;;;-0.27;100.00
42111;BME280;27766;52.174;5.456;2023-01-19T00:33:11;99851.13;;;-0.30;100.00
42111;BME280;27766;52.174;5.456;2023-01-19T00:35:41;99854.38;;;-0.33;100.00
42111;BME280;27766;52.174;5.456;2023-01-19T00:38:10;99864.25;;;-0.21;100.00
42111;BME280;27766;52.174;5.456;2023-01-19T00:40:37;99845.88;;;-0.15;100.00
42111;BME280;27766;52.174;5.456;2023-01-19T00:43:05;99840.78;;;-0.15;100.00
42111;BME280;27766;52.174;5.456;2023-01-19T00:45:32;99840.31;;;-0.07;100.00
42111;BME280;27766;52.174;5.456;2023-01-19T00:48:00;99833.00;;;0.01;100.00
42111;BME280;27766;52.174;5.456;2023-01-19T00:50:28;99836.72;;;0.08;100.00
42111;BME280;27766;52.174;5.456;2023-01-19T00:52:57;99839.50;;;0.14;100.00
42111;BME280;27766;52.174;5.456;2023-01-19T00:55:28;99836.44;;;0.21;100.00
42111;BME280;27766;52.174;5.456;2023-01-19T00:57:57;99835.63;;;0.22;100.00
42111;BME280;27766;52.174;5.456;2023-01-19T01:00:25;99832.97;;;0.19;100.00
42111;BME280;27766;52.174;5.456;2023-01-19T01:02:52;99820.84;;;0.13;100.00
42111;BME280;27766;52.174;5.456;2023-01-19T01:05:20;99842.53;;;0.25;100.00
42111;BME280;27766;52.174;5.456;2023-01-19T01:07:48;99840.78;;;0.24;100.00
42111;BME280;27766;52.174;5.456;2023-01-19T01:10:22;99834.84;;;0.23;100.00
42111;BME280;27766;52.174;5.456;2023-01-19T01:12:49;99840.88;;;0.25;100.00
42111;BME280;27766;52.174;5.456;2023-01-19T01:15:25;99830.16;;;0.33;100.00
42111;BME280;27766;52.174;5.456;2023-01-19T01:17:52;99819.88;;;0.31;100.00
42111;BME280;27766;52.174;5.456;2023-01-19T01:20:23;99832.25;;;0.43;100.00
42111;BME280;27766;52.174;5.456;2023-01-19T01:22:52;99838.34;;;0.46;100.00
42111;BME280;27766;52.174;5.456;2023-01-19T01:25:21;99833.34;;;0.48;100.00
42111;BME280;27766;52.174;5.456;2023-01-19T01:27:49;99823.63;;;0.39;100.00
42111;BME280;27766;52.174;5.456;2023-01-19T01:30:16;99830.66;;;0.45;100.00
42111;BME280;27766;52.174;5.456;2023-01-19T01:32:44;99820.22;;;0.39;100.00
42111;BME280;27766;52.174;5.456;2023-01-19T01:35:12;99817.53;;;0.36;100.00
42111;BME280;27766;52.174;5.456;2023-01-19T01:37:39;99836.63;;;0.45;100.00
42111;BME280;27766;52.174;5.456;2023-01-19T01:40:11;99834.91;;;0.44;100.00
42111;BME280;27766;52.174;5.456;2023-01-19T01:42:38;99835.75;;;0.45;100.00
42111;BME280;27766;52.174;5.456;2023-01-19T01:45:28;99840.03;;;0.46;100.00
42111;BME280;27766;52.174;5.456;2023-01-19T01:48:25;99844.19;;;0.44;100.00
42111;BME280;27766;52.174;5.456;2023-01-19T01:50:57;99855.13;;;0.41;100.00
42111;BME280;27766;52.174;5.456;2023-01-19T01:53:46;99853.38;;;0.40;100.00
42111;BME280;27766;52.174;5.456;2023-01-19T01:56:18;99845.00;;;0.43;100.00
42111;BME280;27766;52.174;5.456;2023-01-19T01:58:47;99839.25;;;0.47;100.00
42111;BME280;27766;52.174;5.456;2023-01-19T02:01:15;99835.16;;;0.51;100.00
42111;BME280;27766;52.174;5.456;2023-01-19T02:04:01;99839.56;;;0.55;100.00
42111;BME280;27766;52.174;5.456;2023-01-19T02:06:28;99838.84;;;0.57;100.00
42111;BME280;27766;52.174;5.456;2023-01-19T02:09:02;99842.38;;;0.61;100.00
42111;BME280;27766;52.174;5.456;2023-01-19T02:11:51;99841.63;;;0.63;100.00
42111;BME280;27766;52.174;5.456;2023-01-19T02:14:37;99844.38;;;0.68;100.00
42111;BME280;27766;52.174;5.456;2023-01-19T02:17:05;99852.19;;;0.73;100.00
42111;BME280;27766;52.174;5.456;2023-01-19T02:19:40;99855.94;;;0.81;100.00
42111;BME280;27766;52.174;5.456;2023-01-19T02:22:19;99857.91;;;0.88;100.00
42111;BME280;27766;52.174;5.456;2023-01-19T02:24:48;99848.88;;;0.95;100.00
42111;BME280;27766;52.174;5.456;2023-01-19T02:27:16;99856.56;;;0.97;100.00
42111;BME280;27766;52.174;5.456;2023-01-19T02:29:43;99858.06;;;1.13;100.00
42111;BME280;27766;52.174;5.456;2023-01-19T02:32:10;99857.69;;;1.24;100.00
42111;BME280;27766;52.174;5.456;2023-01-19T02:34:38;99866.53;;;1.33;100.00
42111;BME280;27766;52.174;5.456;2023-01-19T02:37:10;99860.91;;;1.41;100.00
42111;BME280;27766;52.174;5.456;2023-01-19T02:39:44;99850.94;;;1.48;100.00
42111;BME280;27766;52.174;5.456;2023-01-19T02:42:17;99869.34;;;1.62;100.00
42111;BME280;27766;52.174;5.456;2023-01-19T02:44:47;99865.44;;;1.71;100.00
42111;BME280;27766;52.174;5.456;2023-01-19T02:47:15;99863.13;;;1.78;100.00
42111;BME280;27766;52.174;5.456;2023-01-19T02:49:42;99865.03;;;1.83;100.00
42111;BME280;27766;52.174;5.456;2023-01-19T02:52:14;99879.09;;;1.95;100.00
42111;BME280;27766;52.174;5.456;2023-01-19T02:55:10;99881.56;;;1.93;100.00
42111;BME280;27766;52.174;5.456;2023-01-19T02:58:08;99876.53;;;1.95;100.00
42111;BME280;27766;52.174;5.456;2023-01-19T03:00:45;99890.97;;;1.94;100.00
42111;BME280;27766;52.174;5.456;2023-01-19T03:03:38;99893.34;;;1.89;100.00
42111;BME280;27766;52.174;5.456;2023-01-19T03:08:41;99902.75;;;1.90;100.00
42111;BME280;27766;52.174;5.456;2023-01-19T03:11:12;99889.53;;;1.78;100.00
42111;BME280;27766;52.174;5.456;2023-01-19T03:18:52;99902.88;;;1.94;100.00
42111;BME280;27766;52.174;5.456;2023-01-19T03:21:24;99897.47;;;1.86;100.00
42111;BME280;27766;52.174;5.456;2023-01-19T03:23:56;99912.94;;;1.90;100.00
42111;BME280;27766;52.174;5.456;2023-01-19T03:26:27;99928.09;;;1.86;100.00
42111;BME280;27766;52.174;5.456;2023-01-19T03:28:58;99938.44;;;1.89;100.00
42111;BME280;27766;52.174;5.456;2023-01-19T03:31:27;99931.63;;;1.89;100.00
42111;BME280;27766;52.174;5.456;2023-01-19T03:34:01;99920.38;;;1.84;100.00
42111;BME280;27766;52.174;5.456;2023-01-19T03:36:33;99919.53;;;1.84;100.00
42111;BME280;27766;52.174;5.456;2023-01-19T03:39:02;99910.97;;;1.83;100.00
42111;BME280;27766;52.174;5.456;2023-01-19T03:41:32;99904.22;;;1.84;100.00
42111;BME280;27766;52.174;5.456;2023-01-19T03:44:01;99903.31;;;1.83;100.00
42111;BME280;27766;52.174;5.456;2023-01-19T03:46:29;99919.25;;;1.78;100.00
42111;BME280;27766;52.174;5.456;2023-01-19T03:48:57;99921.91;;;1.79;100.00
42111;BME280;27766;52.174;5.456;2023-01-19T03:51:25;99931.25;;;1.80;100.00
42111;BME280;27766;52.174;5.456;2023-01-19T03:53:52;99928.72;;;1.80;100.00
42111;BME280;27766;52.174;5.456;2023-01-19T03:56:22;99938.91;;;1.80;100.00
42111;BME280;27766;52.174;5.456;2023-01-19T03:58:50;99940.56;;;1.78;100.00
42111;BME280;27766;52.174;5.456;2023-01-19T04:01:18;99939.75;;;1.79;100.00
42111;BME280;27766;52.174;5.456;2023-01-19T04:03:49;99947.28;;;1.76;100.00
42111;BME280;27766;52.174;5.456;2023-01-19T04:06:18;99960.66;;;1.70;100.00
42111;BME280;27766;52.174;5.456;2023-01-19T04:08:48;99953.72;;;1.66;100.00
42111;BME280;27766;52.174;5.456;2023-01-19T04:11:15;99957.00;;;1.64;100.00
42111;BME280;27766;52.174;5.456;2023-01-19T04:13:43;99960.13;;;1.56;100.00
42111;BME280;27766;52.174;5.456;2023-01-19T04:16:10;99948.97;;;1.54;100.00
42111;BME280;27766;52.174;5.456;2023-01-19T04:18:37;99957.06;;;1.44;100.00
42111;BME280;27766;52.174;5.456;2023-01-19T04:21:06;99949.13;;;1.36;100.00
42111;BME280;27766;52.174;5.456;2023-01-19T04:23:34;99949.72;;;1.31;100.00
42111;BME280;27766;52.174;5.456;2023-01-19T04:26:03;99958.44;;;1.36;100.00
42111;BME280;27766;52.174;5.456;2023-01-19T04:28:32;99954.03;;;1.32;100.00
42111;BME280;27766;52.174;5.456;2023-01-19T04:31:00;99923.84;;;1.21;100.00
42111;BME280;27766;52.174;5.456;2023-01-19T04:33:27;99952.88;;;1.25;100.00
42111;BME280;27766;52.174;5.456;2023-01-19T04:35:55;99954.31;;;1.18;100.00
42111;BME280;27766;52.174;5.456;2023-01-19T04:38:23;99964.53;;;1.18;100.00
42111;BME280;27766;52.174;5.456;2023-01-19T04:40:52;99970.47;;;1.19;100.00
42111;BME280;27766;52.174;5.456;2023-01-19T04:43:20;99973.72;;;1.15;100.00
42111;BME280;27766;52.174;5.456;2023-01-19T04:45:48;99972.72;;;1.11;100.00
42111;BME280;27766;52.174;5.456;2023-01-19T04:48:15;99972.63;;;1.09;100.00
42111;BME280;27766;52.174;5.456;2023-01-19T04:50:44;99963.38;;;1.12;100.00
42111;BME280;27766;52.174;5.456;2023-01-19T04:53:12;99981.28;;;1.13;100.00
42111;BME280;27766;52.174;5.456;2023-01-19T04:55:40;99968.13;;;1.04;100.00
42111;BME280;27766;52.174;5.456;2023-01-19T04:58:07;99968.13;;;1.04;100.00
42111;BME280;27766;52.174;5.456;2023-01-19T05:00:34;99987.19;;;1.12;100.00
42111;BME280;27766;52.174;5.456;2023-01-19T05:03:01;99994.84;;;1.12;100.00
42111;BME280;27766;52.174;5.456;2023-01-19T05:05:29;99992.97;;;1.08;100.00
42111;BME280;27766;52.174;5.456;2023-01-19T05:07:58;99997.25;;;1.09;100.00
42111;BME280;27766;52.174;5.456;2023-01-19T05:10:26;99998.94;;;1.08;100.00
42111;BME280;27766;52.174;5.456;2023-01-19T05:12:54;100006.38;;;1.04;100.00
42111;BME280;27766;52.174;5.456;2023-01-19T05:15:22;100004.66;;;1.03;100.00
42111;BME280;27766;52.174;5.456;2023-01-19T05:17:49;100002.41;;;1.10;100.00
42111;BME280;27766;52.174;5.456;2023-01-19T05:20:16;100000.66;;;1.09;100.00
42111;BME280;27766;52.174;5.456;2023-01-19T05:22:50;100012.81;;;1.15;100.00
42111;BME280;27766;52.174;5.456;2023-01-19T05:25:18;100001.88;;;1.18;100.00
42111;BME280;27766;52.174;5.456;2023-01-19T05:27:45;100008.91;;;1.23;100.00
42111;BME280;27766;52.174;5.456;2023-01-19T05:30:13;100004.69;;;1.24;100.00
42111;BME280;27766;52.174;5.456;2023-01-19T05:32:40;100013.28;;;1.26;100.00
42111;BME280;27766;52.174;5.456;2023-01-19T05:35:08;100021.13;;;1.31;100.00
42111;BME280;27766;52.174;5.456;2023-01-19T05:37:36;100028.97;;;1.35;100.00
42111;BME280;27766;52.174;5.456;2023-01-19T05:40:03;100014.53;;;1.36;100.00
42111;BME280;27766;52.174;5.456;2023-01-19T05:42:30;100024.97;;;1.42;100.00
42111;BME280;27766;52.174;5.456;2023-01-19T05:44:59;100030.22;;;1.45;100.00
42111;BME280;27766;52.174;5.456;2023-01-19T05:47:28;100027.66;;;1.45;100.00
42111;BME280;27766;52.174;5.456;2023-01-19T05:49:56;100028.72;;;1.50;100.00
42111;BME280;27766;52.174;5.456;2023-01-19T05:52:23;100033.09;;;1.53;100.00
42111;BME280;27766;52.174;5.456;2023-01-19T05:54:51;100034.97;;;1.57;100.00
42111;BME280;27766;52.174;5.456;2023-01-19T05:57:21;100032.66;;;1.63;100.00
42111;BME280;27766;52.174;5.456;2023-01-19T05:59:48;100032.75;;;1.65;100.00
42111;BME280;27766;52.174;5.456;2023-01-19T06:02:15;100038.84;;;1.68;100.00
42111;BME280;27766;52.174;5.456;2023-01-19T06:04:43;100033.78;;;1.70;100.00
42111;BME280;27766;52.174;5.456;2023-01-19T06:07:10;100042.81;;;1.83;100.00
42111;BME280;27766;52.174;5.456;2023-01-19T06:09:37;100048.78;;;1.83;100.00
42111;BME280;27766;52.174;5.456;2023-01-19T06:12:05;100046.84;;;1.78;100.00
42111;BME280;27766;52.174;5.456;2023-01-19T06:14:32;100054.50;;;1.78;100.00
42111;BME280;27766;52.174;5.456;2023-01-19T06:16:59;100062.91;;;1.75;100.00
42111;BME280;27766;52.174;5.456;2023-01-19T06:19:26;100063.78;;;1.76;100.00
42111;BME280;27766;52.174;5.456;2023-01-19T06:21:53;100083.47;;;1.78;100.00
42111;BME280;27766;52.174;5.456;2023-01-19T06:24:21;100073.06;;;1.73;100.00
42111;BME280;27766;52.174;5.456;2023-01-19T06:26:49;100078.28;;;1.77;100.00
42111;BME280;27766;52.174;5.456;2023-01-19T06:29:16;100087.88;;;1.82;100.00
42111;BME280;27766;52.174;5.456;2023-01-19T06:31:44;100086.06;;;1.80;100.00
42111;BME280;27766;52.174;5.456;2023-01-19T06:34:11;100091.50;;;1.87;100.00
42111;BME280;27766;52.174;5.456;2023-01-19T06:36:38;100108.34;;;2.05;100.00
42111;BME280;27766;52.174;5.456;2023-01-19T06:39:06;100116.16;;;2.08;100.00
42111;BME280;27766;52.174;5.456;2023-01-19T06:41:33;100107.38;;;2.01;100.00
42111;BME280;27766;52.174;5.456;2023-01-19T06:44:04;100115.91;;;2.02;100.00
42111;BME280;27766;52.174;5.456;2023-01-19T06:46:31;100127.47;;;2.15;100.00
42111;BME280;27766;52.174;5.456;2023-01-19T06:48:58;100120.66;;;2.14;100.00
42111;BME280;27766;52.174;5.456;2023-01-19T06:51:25;100115.69;;;2.18;100.00
42111;BME280;27766;52.174;5.456;2023-01-19T06:53:53;100125.25;;;2.22;100.00
42111;BME280;27766;52.174;5.456;2023-01-19T06:56:20;100127.09;;;2.27;100.00
42111;BME280;27766;52.174;5.456;2023-01-19T06:58:47;100129.53;;;2.24;100.00
42111;BME280;27766;52.174;5.456;2023-01-19T07:01:15;100138.88;;;2.23;100.00
42111;BME280;27766;52.174;5.456;2023-01-19T07:03:42;100132.91;;;2.22;100.00
42111;BME280;27766;52.174;5.456;2023-01-19T07:06:12;100136.63;;;2.10;100.00
42111;BME280;27766;52.174;5.456;2023-01-19T07:08:40;100140.19;;;2.13;100.00
42111;BME280;27766;52.174;5.456;2023-01-19T07:11:09;100151.19;;;2.12;100.00
42111;BME280;27766;52.174;5.456;2023-01-19T07:13:55;100160.38;;;2.07;100.00
42111;BME280;27766;52.174;5.456;2023-01-19T07:16:23;100162.72;;;2.02;100.00
42111;BME280;27766;52.174;5.456;2023-01-19T07:18:50;100168.44;;;1.97;100.00
42111;BME280;27766;52.174;5.456;2023-01-19T07:21:17;100166.88;;;1.79;100.00
42111;BME280;27766;52.174;5.456;2023-01-19T07:23:51;100176.06;;;1.76;100.00
42111;BME280;27766;52.174;5.456;2023-01-19T07:26:19;100184.28;;;1.68;100.00
42111;BME280;27766;52.174;5.456;2023-01-19T07:28:47;100183.91;;;1.61;100.00
42111;BME280;27766;52.174;5.456;2023-01-19T07:31:15;100187.88;;;1.54;100.00
42111;BME280;27766;52.174;5.456;2023-01-19T07:33:44;100191.97;;;1.50;100.00
42111;BME280;27766;52.174;5.456;2023-01-19T07:36:12;100193.28;;;1.42;100.00
42111;BME280;27766;52.174;5.456;2023-01-19T07:38:40;100185.38;;;1.36;100.00
42111;BME280;27766;52.174;5.456;2023-01-19T07:41:08;100198.81;;;1.32;100.00
42111;BME280;27766;52.174;5.456;2023-01-19T07:43:36;100200.56;;;1.33;100.00
42111;BME280;27766;52.174;5.456;2023-01-19T07:46:05;100213.53;;;1.37;100.00
42111;BME280;27766;52.174;5.456;2023-01-19T07:48:33;100221.88;;;1.35;100.00
42111;BME280;27766;52.174;5.456;2023-01-19T07:51:02;100220.81;;;1.30;100.00
42111;BME280;27766;52.174;5.456;2023-01-19T07:53:39;100222.56;;;1.31;100.00
42111;BME280;27766;52.174;5.456;2023-01-19T07:56:08;100235.00;;;1.42;100.00
42111;BME280;27766;52.174;5.456;2023-01-19T07:58:37;100240.31;;;1.47;100.00
42111;BME280;27766;52.174;5.456;2023-01-19T08:01:10;100228.09;;;1.40;100.00
42111;BME280;27766;52.174;5.456;2023-01-19T08:03:38;100263.53;;;1.53;100.00
42111;BME280;27766;52.174;5.456;2023-01-19T08:06:06;100258.00;;;1.44;100.00
42111;BME280;27766;52.174;5.456;2023-01-19T08:08:33;100273.47;;;1.47;100.00
42111;BME280;27766;52.174;5.456;2023-01-19T08:11:00;100263.38;;;1.50;100.00
42111;BME280;27766;52.174;5.456;2023-01-19T08:13:29;100253.66;;;1.61;100.00
42111;BME280;27766;52.174;5.456;2023-01-19T08:15:56;100243.59;;;1.64;100.00
42111;BME280;27766;52.174;5.456;2023-01-19T08:18:23;100263.44;;;1.70;100.00
42111;BME280;27766;52.174;5.456;2023-01-19T08:20:50;100275.44;;;1.72;100.00
42111;BME280;27766;52.174;5.456;2023-01-19T08:23:18;100270.94;;;1.67;100.00
42111;BME280;27766;52.174;5.456;2023-01-19T08:25:45;100271.13;;;1.71;100.00
42111;BME280;27766;52.174;5.456;2023-01-19T08:28:14;100282.16;;;1.70;100.00
42111;BME280;27766;52.174;5.456;2023-01-19T08:30:42;100255.09;;;1.54;100.00
42111;BME280;27766;52.174;5.456;2023-01-19T08:33:11;100285.44;;;1.68;100.00
42111;BME280;27766;52.174;5.456;2023-01-19T08:35:41;100291.06;;;1.61;100.00
42111;BME280;27766;52.174;5.456;2023-01-19T08:38:09;100278.69;;;1.50;100.00
42111;BME280;27766;52.174;5.456;2023-01-19T08:40:38;100285.41;;;1.48;100.00
42111;BME280;27766;52.174;5.456;2023-01-19T08:43:09;100294.81;;;1.49;100.00
42111;BME280;27766;52.174;5.456;2023-01-19T08:45:38;100298.97;;;1.47;100.00
42111;BME280;27766;52.174;5.456;2023-01-19T08:48:13;100288.56;;;1.42;100.00
42111;BME280;27766;52.174;5.456;2023-01-19T08:50:40;100300.63;;;1.47;100.00
42111;BME280;27766;52.174;5.456;2023-01-19T08:53:08;100305.81;;;1.48;100.00
42111;BME280;27766;52.174;5.456;2023-01-19T08:55:36;100306.69;;;1.49;100.00
42111;BME280;27766;52.174;5.456;2023-01-19T08:58:04;100303.28;;;1.48;100.00
42111;BME280;27766;52.174;5.456;2023-01-19T09:00:32;100314.72;;;1.56;100.00
42111;BME280;27766;52.174;5.456;2023-01-19T09:03:00;100318.28;;;1.60;100.00
42111;BME280;27766;52.174;5.456;2023-01-19T09:05:31;100321.84;;;1.64;100.00
42111;BME280;27766;52.174;5.456;2023-01-19T09:08:07;100323.44;;;1.62;100.00
42111;BME280;27766;52.174;5.456;2023-01-19T09:10:36;100310.97;;;1.50;100.00
42111;BME280;27766;52.174;5.456;2023-01-19T09:13:06;100324.16;;;1.59;100.00
42111;BME280;27766;52.174;5.456;2023-01-19T09:15:34;100332.56;;;1.56;100.00
42111;BME280;27766;52.174;5.456;2023-01-19T09:18:05;100332.34;;;1.52;100.00
42111;BME280;27766;52.174;5.456;2023-01-19T09:20:33;100318.78;;;1.53;100.00
42111;BME280;27766;52.174;5.456;2023-01-19T09:23:02;100324.97;;;1.58;100.00
42111;BME280;27766;52.174;5.456;2023-01-19T09:25:29;100333.47;;;1.58;100.00
42111;BME280;27766;52.174;5.456;2023-01-19T09:27:58;100341.44;;;1.65;100.00
42111;BME280;27766;52.174;5.456;2023-01-19T09:30:26;100348.50;;;1.70;100.00
42111;BME280;27766;52.174;5.456;2023-01-19T09:32:53;100342.38;;;1.67;100.00
42111;BME280;27766;52.174;5.456;2023-01-19T09:35:20;100342.59;;;1.71;100.00
42111;BME280;27766;52.174;5.456;2023-01-19T09:37:47;100352.84;;;1.73;100.00
42111;BME280;27766;52.174;5.456;2023-01-19T09:40:16;100330.50;;;1.67;100.00
42111;BME280;27766;52.174;5.456;2023-01-19T09:42:51;100357.31;;;1.77;100.00
42111;BME280;27766;52.174;5.456;2023-01-19T09:45:28;100354.75;;;1.77;100.00
42111;BME280;27766;52.174;5.456;2023-01-19T09:47:58;100352.19;;;1.77;100.00
42111;BME280;27766;52.174;5.456;2023-01-19T09:50:33;100358.25;;;1.79;100.00
42111;BME280;27766;52.174;5.456;2023-01-19T09:53:09;100355.97;;;1.85;100.00
42111;BME280;27766;52.174;5.456;2023-01-19T09:55:41;100350.88;;;1.85;100.00
42111;BME280;27766;52.174;5.456;2023-01-19T09:58:15;100358.97;;;1.95;100.00
42111;BME280;27766;52.174;5.456;2023-01-19T10:00:52;100361.09;;;2.05;100.00
42111;BME280;27766;52.174;5.456;2023-01-19T10:03:22;100364.22;;;2.17;100.00
42111;BME280;27766;52.174;5.456;2023-01-19T10:06:00;100369.66;;;2.25;100.00
42111;BME280;27766;52.174;5.456;2023-01-19T10:13:57;100364.34;;;2.40;100.00
42111;BME280;27766;52.174;5.456;2023-01-19T10:21:54;100381.81;;;2.70;100.00
42111;BME280;27766;52.174;5.456;2023-01-19T10:24:28;100381.13;;;2.74;100.00
42111;BME280;27766;52.174;5.456;2023-01-19T10:26:56;100380.47;;;2.78;100.00
42111;BME280;27766;52.174;5.456;2023-01-19T10:29:30;100392.78;;;2.89;100.00
42111;BME280;27766;52.174;5.456;2023-01-19T10:32:15;100398.25;;;2.96;100.00
42111;BME280;27766;52.174;5.456;2023-01-19T10:34:49;100399.25;;;3.00;100.00
42111;BME280;27766;52.174;5.456;2023-01-19T10:37:20;100401.09;;;3.04;100.00
42111;BME280;27766;52.174;5.456;2023-01-19T10:40:19;100393.56;;;3.07;100.00
42111;BME280;27766;52.174;5.456;2023-01-19T10:42:48;100399.75;;;3.12;100.00
42111;BME280;27766;52.174;5.456;2023-01-19T10:45:17;100394.88;;;3.19;100.00
42111;BME280;27766;52.174;5.456;2023-01-19T10:47:45;100402.94;;;3.28;100.00
42111;BME280;27766;52.174;5.456;2023-01-19T10:50:31;100398.81;;;3.31;100.00
42111;BME280;27766;52.174;5.456;2023-01-19T10:53:01;100404.88;;;3.33;100.00
42111;BME280;27766;52.174;5.456;2023-01-19T10:55:37;100401.56;;;3.36;100.00
42111;BME280;27766;52.174;5.456;2023-01-19T10:58:05;100397.25;;;3.35;100.00
42111;BME280;27766;52.174;5.456;2023-01-19T11:00:38;100404.16;;;3.38;100.00
42111;BME280;27766;52.174;5.456;2023-01-19T11:03:29;100401.75;;;3.41;100.00
42111;BME280;27766;52.174;5.456;2023-01-19T11:06:24;100404.47;;;3.45;100.00
42111;BME280;27766;52.174;5.456;2023-01-19T11:08:53;100396.75;;;3.44;100.00
42111;BME280;27766;52.174;5.456;2023-01-19T11:11:41;100408.00;;;3.47;100.00
42111;BME280;27766;52.174;5.456;2023-01-19T11:14:11;100406.47;;;3.53;100.00
42111;BME280;27766;52.174;5.456;2023-01-19T11:16:46;100410.97;;;3.58;100.00
42111;BME280;27766;52.174;5.456;2023-01-19T11:19:18;100415.44;;;3.64;100.00
42111;BME280;27766;52.174;5.456;2023-01-19T11:21:46;100411.34;;;3.68;100.00
42111;BME280;27766;52.174;5.456;2023-01-19T11:24:13;100417.56;;;3.74;100.00
42111;BME280;27766;52.174;5.456;2023-01-19T11:26:47;100405.78;;;3.79;100.00
42111;BME280;27766;52.174;5.456;2023-01-19T11:29:24;100415.50;;;3.87;100.00
42111;BME280;27766;52.174;5.456;2023-01-19T11:31:53;100416.53;;;3.92;100.00
42111;BME280;27766;52.174;5.456;2023-01-19T11:36:59;100421.06;;;3.99;100.00
42111;BME280;27766;52.174;5.456;2023-01-19T11:39:28;100429.09;;;4.08;100.00
42111;BME280;27766;52.174;5.456;2023-01-19T11:42:02;100420.03;;;4.17;100.00
42111;BME280;27766;52.174;5.456;2023-01-19T11:44:32;100422.84;;;4.24;100.00
42111;BME280;27766;52.174;5.456;2023-01-19T11:47:02;100419.88;;;4.36;100.00
42111;BME280;27766;52.174;5.456;2023-01-19T11:49:51;100424.31;;;4.40;100.00
42111;BME280;27766;52.174;5.456;2023-01-19T11:52:31;100417.44;;;4.39;100.00
42111;BME280;27766;52.174;5.456;2023-01-19T11:55:04;100414.88;;;4.39;100.00
42111;BME280;27766;52.174;5.456;2023-01-19T11:57:32;100415.91;;;4.44;100.00
42111;BME280;27766;52.174;5.456;2023-01-19T12:00:02;100423.75;;;4.49;100.00
42111;BME280;27766;52.174;5.456;2023-01-19T12:02:43;100421.44;;;4.57;100.00
42111;BME280;27766;52.174;5.456;2023-01-19T12:05:17;100422.59;;;4.65;100.00
42111;BME280;27766;52.174;5.456;2023-01-19T12:07:46;100420.19;;;4.70;100.00
42111;BME280;27766;52.174;5.456;2023-01-19T12:10:27;100421.19;;;4.73;100.00
42111;BME280;27766;52.174;5.456;2023-01-19T12:12:56;100417.81;;;4.74;100.00
42111;BME280;27766;52.174;5.456;2023-01-19T12:15:40;100416.81;;;4.71;100.00
42111;BME280;27766;52.174;5.456;2023-01-19T12:18:16;100415.84;;;4.67;100.00
42111;BME280;27766;52.174;5.456;2023-01-19T12:20:50;100423.50;;;4.66;100.00
42111;BME280;27766;52.174;5.456;2023-01-19T12:26:03;100414.41;;;4.75;100.00
42111;BME280;27766;52.174;5.456;2023-01-19T12:28:38;100414.53;;;4.79;100.00
42111;BME280;27766;52.174;5.456;2023-01-19T12:31:06;100411.13;;;4.80;100.00
42111;BME280;27766;52.174;5.456;2023-01-19T12:33:38;100417.81;;;4.74;100.00
42111;BME280;27766;52.174;5.456;2023-01-19T12:41:45;100421.84;;;4.92;100.00
42111;BME280;27766;52.174;5.456;2023-01-19T12:44:16;100438.84;;;4.90;100.00
42111;BME280;27766;52.174;5.456;2023-01-19T12:46:54;100424.81;;;4.79;100.00
42111;BME280;27766;52.174;5.456;2023-01-19T12:49:33;100426.75;;;4.86;100.00
42111;BME280;27766;52.174;5.456;2023-01-19T12:57:53;100435.75;;;4.74;100.00
42111;BME280;27766;52.174;5.456;2023-01-19T13:03:00;100444.25;;;4.49;100.00
42111;BME280;27766;52.174;5.456;2023-01-19T13:13:23;100445.72;;;4.20;100.00
42111;BME280;27766;52.174;5.456;2023-01-19T13:15:52;100442.34;;;4.21;100.00
42111;BME280;27766;52.174;5.456;2023-01-19T13:18:31;100455.81;;;4.15;100.00
42111;BME280;27766;52.174;5.456;2023-01-19T13:21:04;100449.81;;;4.15;100.00
42111;BME280;27766;52.174;5.456;2023-01-19T13:26:17;100442.00;;;4.11;100.00
42111;BME280;27766;52.174;5.456;2023-01-19T13:28:49;100442.19;;;4.16;100.00
42111;BME280;27766;52.174;5.456;2023-01-19T13:31:18;100446.31;;;4.12;100.00
42111;BME280;27766;52.174;5.456;2023-01-19T13:33:49;100449.69;;;4.11;100.00
42111;BME280;27766;52.174;5.456;2023-01-19T13:36:21;100453.91;;;4.09;100.00
42111;BME280;27766;52.174;5.456;2023-01-19T13:38:50;100440.84;;;4.03;100.00
42111;BME280;27766;52.174;5.456;2023-01-19T13:41:23;100458.53;;;4.20;100.00
42111;BME280;27766;52.174;5.456;2023-01-19T13:43:59;100451.47;;;4.37;100.00
42111;BME280;27766;52.174;5.456;2023-01-19T13:46:27;100461.16;;;4.44;100.00
42111;BME280;27766;52.174;5.456;2023-01-19T13:49:20;100454.47;;;4.48;100.00
42111;BME280;27766;52.174;5.456;2023-01-19T13:52:13;100451.19;;;4.52;100.00
42111;BME280;27766;52.174;5.456;2023-01-19T13:55:11;100459.44;;;4.67;100.00
42111;BME280;27766;52.174;5.456;2023-01-19T13:57:40;100452.34;;;4.60;98.86
42111;BME280;27766;52.174;5.456;2023-01-19T14:02:58;100455.09;;;4.42;99.96
42111;BME280;27766;52.174;5.456;2023-01-19T14:05:36;100469.88;;;4.49;100.00